Milton, Canada
Current Conditions -  °F | °C
As of 7:00 AM on Thursday 23 Oct 2014 (Local Time) from CYYZ Reporting Station
Few Clouds Few Clouds  
Wind Chill: 36°   Ceiling: Unl
Heat Index: 43°   Visibility: 15mi
Dew Point: 39°   Wind: 14mph
Humidity: 87%   Direction: 340°NNW
Pressure: 30.19"   Gusts: NA
Location:  43.51°N, 79.88°W
Report Text: CYYZ 231100Z 34012KT 15SM FEW035 06/04 A3019 RMK SC1 SC TR SLP226
Loading
Personal Weather Stations






























Interactive Weather Map
Tropical Storm Tracking
New forecast layout! Learn more

10-Day Weather Forecast

Advertisements
Track Severe Weather on mobile